Time;durP1;ratioP1;P1;durP2;ratioP2;P2;SDS_P1;SDS_P2;PMS_P1;PMS_P2;Temp;Humidity;BMP_temperature;BMP_pressure;BME280_temperature;BME280_humidity;BME280_pressure;Samples;Min_cycle;Max_cycle;Signal;HPM_P1;HPM_P2
2024/01/08 00:01:35;;;;;;;1.10;1.10;;;3.00;98.10;;;;;;5053156;28;20253;-78
2024/01/08 00:04:01;;;;;;;1.30;1.20;;;3.00;98.00;;;;;;5066518;28;20258;-77
2024/01/08 00:06:27;;;;;;;1.40;1.40;;;3.10;98.10;;;;;;5054330;28;20172;-77
2024/01/08 00:08:52;;;;;;;1.30;1.30;;;3.10;98.00;;;;;;5052263;28;20220;-79
2024/01/08 00:11:18;;;;;;;1.10;1.10;;;3.00;97.80;;;;;;5052026;28;20233;-79
2024/01/08 00:13:44;;;;;;;1.17;1.17;;;3.10;97.70;;;;;;5053771;28;20552;-80
2024/01/08 00:16:10;;;;;;;1.60;1.60;;;3.00;97.90;;;;;;5051750;28;20182;-79
2024/01/08 00:18:36;;;;;;;1.27;1.27;;;3.00;97.80;;;;;;5052936;28;20196;-79
2024/01/08 00:21:02;;;;;;;1.70;1.60;;;3.80;98.20;;;;;;5053821;28;20194;-77
2024/01/08 00:23:30;;;;;;;1.40;1.40;;;2.50;97.60;;;;;;5068824;28;20180;-79
2024/01/08 00:25:56;;;;;;;1.33;1.23;;;3.10;97.80;;;;;;5064215;28;20168;-79
2024/01/08 00:28:22;;;;;;;1.90;1.20;;;3.10;97.90;;;;;;5059804;28;20206;-77
2024/01/08 00:30:48;;;;;;;1.20;1.20;;;3.00;97.90;;;;;;5053463;28;20168;-80
2024/01/08 00:33:14;;;;;;;1.20;1.20;;;3.00;97.80;;;;;;5056377;28;20245;-79
2024/01/08 00:35:40;;;;;;;1.30;1.30;;;3.00;98.00;;;;;;5056577;28;20629;-78
2024/01/08 00:38:06;;;;;;;1.17;1.17;;;3.10;98.00;;;;;;5056709;28;20212;-79
2024/01/08 00:40:31;;;;;;;1.50;1.40;;;3.10;98.00;;;;;;5056048;28;20164;-78
2024/01/08 00:42:57;;;;;;;1.47;1.43;;;3.10;98.00;;;;;;5056149;28;20173;-79
2024/01/08 00:45:23;;;;;;;1.30;1.30;;;3.20;97.90;;;;;;5056815;28;20169;-79
2024/01/08 00:47:49;;;;;;;1.43;1.33;;;3.10;97.90;;;;;;5056407;28;20767;-80
2024/01/08 00:50:16;;;;;;;1.50;1.50;;;3.10;98.20;;;;;;5056480;28;20175;-79
2024/01/08 00:52:42;;;;;;;1.27;1.27;;;2.80;97.80;;;;;;5057067;28;20183;-77
2024/01/08 00:55:11;;;;;;;1.60;1.50;;;3.10;98.00;;;;;;5056860;28;20550;-77
2024/01/08 00:57:38;;;;;;;1.50;1.47;;;3.10;97.90;;;;;;5066392;28;20207;-79
2024/01/08 01:00:05;;;;;;;2.73;1.60;;;3.10;98.00;;;;;;5070320;28;20272;-80
2024/01/08 01:02:31;;;;;;;1.30;1.30;;;3.10;98.00;;;;;;5057759;28;20225;-79
2024/01/08 01:04:57;;;;;;;1.30;1.30;;;3.10;98.00;;;;;;5056953;28;20169;-77
2024/01/08 01:07:24;;;;;;;1.43;1.33;;;3.10;98.00;;;;;;5056546;28;20253;-79
2024/01/08 01:09:50;;;;;;;1.30;1.30;;;3.10;98.00;;;;;;5056431;28;20223;-78
2024/01/08 01:12:16;;;;;;;1.40;1.40;;;3.10;98.00;;;;;;5057031;28;20177;-80
2024/01/08 01:14:42;;;;;;;1.43;1.43;;;3.10;98.10;;;;;;5058065;28;20196;-78
2024/01/08 01:17:08;;;;;;;1.20;1.20;;;3.10;98.00;;;;;;5054357;28;20223;-79
2024/01/08 01:19:33;;;;;;;1.40;1.40;;;3.10;98.00;;;;;;5058692;28;20211;-80
2024/01/08 01:21:59;;;;;;;2.13;1.47;;;3.10;98.00;;;;;;5076212;28;20189;-77
2024/01/08 01:24:25;;;;;;;1.70;1.60;;;3.10;98.00;;;;;;5055992;28;20188;-79
2024/01/08 01:26:51;;;;;;;1.10;1.10;;;3.10;97.90;;;;;;5056028;28;20187;-79
2024/01/08 01:29:17;;;;;;;1.23;1.13;;;3.10;98.00;;;;;;5055827;28;20190;-80
2024/01/08 01:31:43;;;;;;;1.40;1.40;;;3.10;97.90;;;;;;5054271;28;20180;-79
2024/01/08 01:34:11;;;;;;;0.90;0.90;;;3.10;97.90;;;;;;5055348;28;20202;-75
2024/01/08 01:36:38;;;;;;;1.50;1.40;;;3.10;97.80;;;;;;5055264;28;20182;-77
2024/01/08 01:39:05;;;;;;;1.03;1.03;;;3.10;97.80;;;;;;5055367;28;20557;-79
2024/01/08 01:41:34;;;;;;;1.10;1.10;;;3.10;97.90;;;;;;5054118;28;20189;-76
2024/01/08 01:44:00;;;;;;;1.20;1.20;;;3.10;97.80;;;;;;5063656;28;20184;-77
2024/01/08 01:46:51;;;;;;;2.00;1.50;;;3.10;97.70;;;;;;5064228;28;20191;-76
2024/01/08 01:49:19;;;;;;;1.43;1.20;;;3.10;97.60;;;;;;5068935;28;20263;-78
2024/01/08 01:51:47;;;;;;;1.20;1.20;;;3.20;97.80;;;;;;5073141;28;20173;-79
2024/01/08 01:54:15;;;;;;;1.10;1.10;;;3.20;97.80;;;;;;5059943;28;20665;-80
2024/01/08 01:56:44;;;;;;;1.10;1.10;;;3.20;97.80;;;;;;5056222;28;20269;-80
2024/01/08 01:59:10;;;;;;;1.20;1.20;;;3.10;97.90;;;;;;5055696;28;20202;-81
2024/01/08 02:01:36;;;;;;;1.30;1.23;;;3.10;97.70;;;;;;5054635;28;20180;-80
2024/01/08 02:04:08;;;;;;;1.47;1.37;;;3.10;97.80;;;;;;5055214;28;20670;-79
2024/01/08 02:06:35;;;;;;;1.33;1.33;;;3.00;97.70;;;;;;5054809;28;20530;-81
2024/01/08 02:09:02;;;;;;;1.20;1.20;;;3.10;97.90;;;;;;5055004;28;20239;-77
2024/01/08 02:11:29;;;;;;;1.20;1.20;;;3.10;97.80;;;;;;5063741;28;20166;-80
2024/01/08 02:13:55;;;;;;;1.00;1.00;;;3.10;97.70;;;;;;5072950;28;20189;-77
2024/01/08 02:16:21;;;;;;;1.10;1.10;;;3.10;97.50;;;;;;5056147;28;20170;-81
2024/01/08 02:18:46;;;;;;;1.30;1.30;;;3.10;97.50;;;;;;5055327;28;20218;-79
2024/01/08 02:21:12;;;;;;;1.30;1.20;;;3.10;97.50;;;;;;5054255;28;20528;-78
2024/01/08 02:23:38;;;;;;;1.20;1.20;;;3.40;97.70;;;;;;5054631;28;20517;-79
2024/01/08 02:26:05;;;;;;;1.10;1.10;;;3.10;97.30;;;;;;5054231;28;20201;-80
2024/01/08 02:28:30;;;;;;;1.40;1.40;;;3.10;97.50;;;;;;5053419;28;20516;-77
2024/01/08 02:30:56;;;;;;;1.23;1.23;;;3.20;97.50;;;;;;5054292;28;20226;-78
2024/01/08 02:33:22;;;;;;;1.40;1.30;;;3.10;97.20;;;;;;5054045;28;20632;-79
2024/01/08 02:35:49;;;;;;;1.27;1.27;;;3.20;97.60;;;;;;5054573;28;20174;-78
2024/01/08 02:38:14;;;;;;;0.90;0.90;;;3.10;97.40;;;;;;5054316;28;20351;-79
2024/01/08 02:40:43;;;;;;;1.40;1.40;;;3.10;97.40;;;;;;5053929;28;20626;-78
2024/01/08 02:43:09;;;;;;;1.10;1.10;;;3.10;97.40;;;;;;5054267;28;20180;-79
2024/01/08 02:45:34;;;;;;;1.00;1.00;;;3.10;97.40;;;;;;5054292;28;20531;-77
2024/01/08 02:48:00;;;;;;;1.40;1.30;;;3.10;97.20;;;;;;5055079;28;20172;-76
2024/01/08 02:50:26;;;;;;;0.90;0.90;;;3.10;97.30;;;;;;5059444;28;20168;-77
2024/01/08 02:52:52;;;;;;;1.10;1.10;;;3.10;97.30;;;;;;5055866;28;20647;-77
2024/01/08 02:55:18;;;;;;;1.20;1.20;;;3.10;97.70;;;;;;5054987;28;20185;-79
2024/01/08 02:57:44;;;;;;;1.00;1.00;;;3.10;97.20;;;;;;5073170;28;20598;-77
2024/01/08 03:00:10;;;;;;;1.40;1.30;;;3.10;97.10;;;;;;5067317;28;20209;-79
2024/01/08 03:02:36;;;;;;;1.07;1.07;;;3.10;97.00;;;;;;5064478;28;20179;-76
2024/01/08 03:05:02;;;;;;;0.97;0.97;;;3.10;97.00;;;;;;5054339;28;20253;-80
2024/01/08 03:07:28;;;;;;;1.27;1.27;;;3.10;97.10;;;;;;5055377;28;20261;-76
2024/01/08 03:09:57;;;;;;;1.00;1.00;;;3.10;96.80;;;;;;5053815;28;20225;-78
2024/01/08 03:12:23;;;;;;;1.07;1.07;;;3.10;97.10;;;;;;5053978;28;20182;-78
2024/01/08 03:14:48;;;;;;;1.07;1.07;;;3.10;97.10;;;;;;5053354;28;20181;-79
2024/01/08 03:17:14;;;;;;;1.13;1.13;;;3.10;97.10;;;;;;5054014;28;20209;-79
2024/01/08 03:19:40;;;;;;;1.20;1.20;;;3.10;96.80;;;;;;5053692;28;20211;-78
2024/01/08 03:22:06;;;;;;;1.30;1.30;;;3.10;97.00;;;;;;5053685;28;20283;-76
2024/01/08 03:24:32;;;;;;;1.40;1.40;;;3.10;97.00;;;;;;5053765;28;20187;-77
2024/01/08 03:26:57;;;;;;;1.30;1.20;;;3.10;96.90;;;;;;5059826;28;20172;-80
2024/01/08 03:29:23;;;;;;;1.07;1.07;;;3.10;96.80;;;;;;5059903;28;20310;-79
2024/01/08 03:31:49;;;;;;;1.10;1.10;;;3.10;97.00;;;;;;5052324;28;20705;-79
2024/01/08 03:34:15;;;;;;;1.30;1.30;;;3.10;96.90;;;;;;5052108;28;20178;-78
2024/01/08 03:36:48;;;;;;;1.20;1.20;;;3.10;97.00;;;;;;5053030;28;20230;-77
2024/01/08 03:39:15;;;;;;;1.10;1.10;;;3.10;96.80;;;;;;5052865;28;20215;-79
2024/01/08 03:41:41;;;;;;;1.77;1.23;;;3.10;96.80;;;;;;5052593;28;20170;-79
2024/01/08 03:44:08;;;;;;;1.30;1.30;;;3.10;96.90;;;;;;5052682;28;20187;-80
2024/01/08 03:46:34;;;;;;;1.10;1.10;;;3.10;96.80;;;;;;5052692;28;20179;-79
2024/01/08 03:49:01;;;;;;;1.40;1.40;;;3.10;96.70;;;;;;5052822;28;20183;-79
2024/01/08 03:51:27;;;;;;;1.13;1.13;;;3.00;96.30;;;;;;5052403;28;20178;-77
2024/01/08 03:53:53;;;;;;;1.10;1.10;;;3.10;96.80;;;;;;5052612;28;20175;-79
2024/01/08 03:56:19;;;;;;;1.00;1.00;;;3.10;96.50;;;;;;5051240;28;20181;-78
2024/01/08 03:58:45;;;;;;;1.37;1.37;;;3.10;96.50;;;;;;5053937;28;20745;-77
2024/01/08 04:01:14;;;;;;;1.13;1.13;;;3.00;96.50;;;;;;5063087;28;20183;-78
2024/01/08 04:03:40;;;;;;;1.27;1.27;;;3.00;96.30;;;;;;5061672;28;20173;-78
2024/01/08 04:06:06;;;;;;;1.27;1.17;;;3.00;96.40;;;;;;5052854;28;20168;-79
2024/01/08 04:08:32;;;;;;;1.00;1.00;;;3.00;96.50;;;;;;5052491;28;20200;-76
2024/01/08 04:10:58;;;;;;;1.23;1.23;;;3.00;96.80;;;;;;5052008;28;20523;-78
2024/01/08 04:13:25;;;;;;;1.37;1.27;;;3.00;96.60;;;;;;5052720;28;20180;-77
2024/01/08 04:15:50;;;;;;;1.13;1.13;;;3.00;96.60;;;;;;5052407;28;20175;-79
2024/01/08 04:18:16;;;;;;;1.03;1.03;;;3.00;96.50;;;;;;5064911;28;20210;-80
2024/01/08 04:20:42;;;;;;;1.30;1.30;;;3.00;96.40;;;;;;5054986;28;20266;-78
2024/01/08 04:23:08;;;;;;;1.13;1.13;;;3.00;96.10;;;;;;5052708;28;20239;-79
2024/01/08 04:25:34;;;;;;;1.47;1.47;;;3.00;96.50;;;;;;5052590;28;20205;-80
2024/01/08 04:28:00;;;;;;;1.20;1.20;;;3.00;96.50;;;;;;5053134;28;20208;-78
2024/01/08 04:30:25;;;;;;;1.40;1.40;;;3.00;96.30;;;;;;5057776;28;20251;-78
2024/01/08 04:32:52;;;;;;;1.40;1.40;;;3.00;96.40;;;;;;5056089;28;20194;-81
2024/01/08 04:35:18;;;;;;;1.43;1.33;;;3.00;96.40;;;;;;5052441;28;20646;-80
2024/01/08 04:37:44;;;;;;;1.07;1.07;;;3.00;96.50;;;;;;5051624;28;20207;-79
2024/01/08 04:40:10;;;;;;;1.03;1.03;;;3.10;96.50;;;;;;5052107;28;20193;-80
2024/01/08 04:42:36;;;;;;;1.30;1.30;;;3.10;96.40;;;;;;5052343;28;20513;-79
2024/01/08 04:45:02;;;;;;;1.43;1.30;;;3.00;96.30;;;;;;5052226;28;20176;-81
2024/01/08 04:47:27;;;;;;;1.63;1.50;;;3.00;96.40;;;;;;5052488;28;20180;-80
2024/01/08 04:49:53;;;;;;;1.20;1.20;;;3.00;96.40;;;;;;5052128;28;20180;-78
2024/01/08 04:52:19;;;;;;;1.60;1.50;;;3.00;96.40;;;;;;5051595;28;20245;-78
2024/01/08 04:54:45;;;;;;;1.10;1.10;;;3.00;96.50;;;;;;5066511;28;20180;-79
2024/01/08 04:57:11;;;;;;;1.30;1.20;;;3.00;96.50;;;;;;5060826;28;20199;-80
2024/01/08 04:59:44;;;;;;;1.43;1.33;;;3.10;96.60;;;;;;5053347;28;20171;-79
2024/01/08 05:02:10;;;;;;;1.40;1.40;;;3.10;96.30;;;;;;5053525;28;20175;-79
2024/01/08 05:04:36;;;;;;;1.50;1.40;;;3.00;96.40;;;;;;5051935;28;20187;-78
2024/01/08 05:07:02;;;;;;;1.17;1.17;;;3.00;96.50;;;;;;5052094;28;20644;-78
2024/01/08 05:09:29;;;;;;;1.30;1.30;;;3.00;96.80;;;;;;5055775;28;20229;-78
2024/01/08 05:11:56;;;;;;;1.20;1.20;;;3.00;96.50;;;;;;5055541;28;20608;-80
2024/01/08 05:14:22;;;;;;;1.33;1.30;;;3.00;96.50;;;;;;5053928;28;20173;-79
2024/01/08 05:16:48;;;;;;;1.30;1.30;;;3.00;96.60;;;;;;5052172;28;20183;-78
2024/01/08 05:19:14;;;;;;;1.50;1.40;;;3.00;96.50;;;;;;5055688;28;20184;-77
2024/01/08 05:21:40;;;;;;;1.20;1.20;;;3.00;96.60;;;;;;5055748;28;20174;-79
2024/01/08 05:24:07;;;;;;;1.43;1.33;;;2.90;96.20;;;;;;5054295;28;20188;-79
2024/01/08 05:26:33;;;;;;;1.30;1.30;;;3.00;96.60;;;;;;5055341;28;20168;-78
2024/01/08 05:28:58;;;;;;;1.27;1.27;;;3.00;96.70;;;;;;5055612;28;20178;-78
2024/01/08 05:31:24;;;;;;;1.80;1.70;;;3.00;96.70;;;;;;5055762;28;20167;-79
2024/01/08 05:33:50;;;;;;;1.20;1.20;;;2.90;96.70;;;;;;5055225;28;20186;-80
2024/01/08 05:36:19;;;;;;;1.30;1.30;;;2.90;96.50;;;;;;5056518;28;20244;-78
2024/01/08 05:38:45;;;;;;;1.30;1.30;;;2.90;96.20;;;;;;5056296;28;20206;-76
2024/01/08 05:41:10;;;;;;;1.10;1.10;;;3.00;96.50;;;;;;5056042;28;20265;-80
2024/01/08 05:43:40;;;;;;;1.10;1.10;;;3.10;97.00;;;;;;5056450;28;20230;-78
2024/01/08 05:46:07;;;;;;;1.57;1.20;;;3.00;96.60;;;;;;5055419;28;20187;-79
2024/01/08 05:48:37;;;;;;;1.27;1.27;;;3.10;96.80;;;;;;5056630;28;20176;-78
2024/01/08 05:51:09;;;;;;;1.10;1.10;;;3.10;96.60;;;;;;5056898;28;20176;-76
2024/01/08 05:53:35;;;;;;;1.50;1.40;;;3.00;96.50;;;;;;5067834;28;20171;-80
2024/01/08 05:56:03;;;;;;;1.20;1.20;;;3.00;96.60;;;;;;5057615;28;20205;-79
2024/01/08 05:58:30;;;;;;;1.53;1.53;;;3.10;96.50;;;;;;5055053;28;20246;-79
2024/01/08 06:00:59;;;;;;;1.43;1.33;;;3.00;96.60;;;;;;5055785;28;20177;-78
2024/01/08 06:03:24;;;;;;;1.50;1.40;;;2.90;96.70;;;;;;5056349;28;20641;-79
2024/01/08 06:05:50;;;;;;;1.13;1.13;;;2.90;96.60;;;;;;5067839;28;20205;-77
2024/01/08 06:08:17;;;;;;;1.43;1.43;;;2.90;96.60;;;;;;5068899;28;20543;-80
2024/01/08 06:10:43;;;;;;;1.33;1.33;;;2.90;96.50;;;;;;5055785;28;20231;-79
2024/01/08 06:13:11;;;;;;;1.37;1.30;;;2.90;96.60;;;;;;5054658;28;20200;-79
2024/01/08 06:15:37;;;;;;;1.33;1.30;;;2.90;96.70;;;;;;5054832;28;20180;-78
2024/01/08 06:18:04;;;;;;;1.10;1.10;;;2.90;96.60;;;;;;5055048;28;20219;-80
2024/01/08 06:20:30;;;;;;;1.20;1.20;;;2.90;96.60;;;;;;5055400;28;20169;-81
2024/01/08 06:22:56;;;;;;;1.60;1.03;;;2.90;96.60;;;;;;5054686;28;20168;-77
2024/01/08 06:25:22;;;;;;;1.43;1.23;;;2.90;96.50;;;;;;5056023;28;20198;-80
2024/01/08 06:27:49;;;;;;;1.50;1.50;;;2.90;96.30;;;;;;5054127;28;20196;-78
2024/01/08 06:30:17;;;;;;;1.10;1.10;;;2.80;96.60;;;;;;5054060;28;20564;-78
2024/01/08 06:32:43;;;;;;;2.07;1.30;;;2.80;96.60;;;;;;5054370;28;20263;-78
2024/01/08 06:35:10;;;;;;;1.17;1.17;;;2.90;96.70;;;;;;5055175;28;20183;-79
2024/01/08 06:37:36;;;;;;;1.37;1.37;;;2.90;96.60;;;;;;5059435;28;20211;-79
2024/01/08 06:40:02;;;;;;;1.53;1.53;;;2.90;96.80;;;;;;5051648;28;20181;-76
2024/01/08 06:42:28;;;;;;;1.30;1.30;;;;;;;;;;5047850;28;20179;-79
2024/01/08 06:44:54;;;;;;;1.00;1.00;;;2.80;96.20;;;;;;5045527;28;20223;-78
2024/01/08 06:47:19;;;;;;;2.43;1.30;;;2.80;96.50;;;;;;5041621;28;20192;-79
2024/01/08 06:49:45;;;;;;;1.20;1.10;;;2.70;96.40;;;;;;5043812;28;20177;-76
2024/01/08 06:52:11;;;;;;;1.03;1.03;;;2.70;96.40;;;;;;5057246;28;20187;-77
2024/01/08 06:54:38;;;;;;;1.37;1.37;;;2.70;96.60;;;;;;5074457;28;20182;-77
2024/01/08 06:57:04;;;;;;;1.40;1.40;;;2.80;96.70;;;;;;5056780;28;20689;-78
2024/01/08 06:59:29;;;;;;;1.30;1.30;;;2.80;96.50;;;;;;5054378;28;20180;-78
2024/01/08 07:01:55;;;;;;;1.47;1.37;;;2.80;96.10;;;;;;5060257;28;20185;-78
2024/01/08 07:04:21;;;;;;;1.53;1.43;;;2.70;96.20;;;;;;5059984;28;20199;-80
2024/01/08 07:06:47;;;;;;;1.50;1.40;;;;;;;;;;5061651;28;20186;-78
2024/01/08 07:09:13;;;;;;;1.40;1.40;;;2.70;96.20;;;;;;5063796;28;20224;-77
2024/01/08 07:11:39;;;;;;;1.20;1.20;;;2.70;96.50;;;;;;5063796;28;20179;-80
2024/01/08 07:14:05;;;;;;;1.03;1.03;;;2.70;96.10;;;;;;5055744;28;20171;-80
2024/01/08 07:16:31;;;;;;;1.27;1.20;;;2.60;96.10;;;;;;5057306;28;20182;-78
2024/01/08 07:18:56;;;;;;;1.30;1.30;;;2.60;96.40;;;;;;5055471;28;20209;-78
2024/01/08 07:21:22;;;;;;;1.03;1.03;;;2.60;96.30;;;;;;5054705;28;20218;-77
2024/01/08 07:23:50;;;;;;;2.33;1.30;;;2.70;96.40;;;;;;5053439;28;20181;-79
2024/01/08 07:26:16;;;;;;;1.47;1.43;;;2.70;96.30;;;;;;5054446;28;20662;-79
2024/01/08 07:28:46;;;;;;;1.50;1.40;;;2.70;96.40;;;;;;5053291;28;20206;-80
2024/01/08 07:31:12;;;;;;;1.30;1.30;;;2.60;96.30;;;;;;5053684;28;20179;-79
2024/01/08 07:33:39;;;;;;;1.43;1.27;;;2.60;96.40;;;;;;5053575;28;20650;-79
2024/01/08 07:36:06;;;;;;;1.03;1.03;;;2.70;96.50;;;;;;5053206;28;20185;-79
2024/01/08 07:38:32;;;;;;;1.50;1.40;;;2.60;96.40;;;;;;5053465;28;20211;-80
2024/01/08 07:40:59;;;;;;;1.30;1.30;;;2.70;96.80;;;;;;5052815;28;20513;-78
2024/01/08 07:43:24;;;;;;;1.20;1.20;;;2.60;96.40;;;;;;5054307;28;20180;-79
2024/01/08 07:45:51;;;;;;;1.00;1.00;;;2.60;96.40;;;;;;5058897;28;20877;-78
2024/01/08 07:48:16;;;;;;;1.03;1.03;;;2.80;96.60;;;;;;5054251;28;20266;-77
2024/01/08 07:50:42;;;;;;;1.63;1.37;;;2.70;96.50;;;;;;5053404;28;20303;-81
2024/01/08 07:53:08;;;;;;;1.23;1.23;;;2.70;96.40;;;;;;5053507;28;20635;-78
2024/01/08 07:55:34;;;;;;;1.40;1.40;;;2.70;96.10;;;;;;5051624;28;20172;-78
2024/01/08 07:57:59;;;;;;;2.00;1.50;;;2.70;96.50;;;;;;5052361;28;20243;-77
2024/01/08 08:00:25;;;;;;;1.10;1.10;;;2.70;96.40;;;;;;5048056;28;20329;-80
2024/01/08 08:02:51;;;;;;;1.30;1.30;;;3.50;96.90;;;;;;5038850;28;20904;-79
2024/01/08 08:05:17;;;;;;;1.07;1.07;;;2.70;96.40;;;;;;5033041;28;20246;-79
2024/01/08 08:07:43;;;;;;;1.10;1.10;;;2.70;96.50;;;;;;5033043;28;20173;-78
2024/01/08 08:10:09;;;;;;;1.17;1.17;;;2.80;96.20;;;;;;5032563;28;20270;-79
2024/01/08 08:12:35;;;;;;;1.90;1.80;;;2.80;96.70;;;;;;5033624;28;20185;-77
2024/01/08 08:15:01;;;;;;;4.10;3.23;;;3.00;97.50;;;;;;5041497;28;20182;-78
2024/01/08 08:17:27;;;;;;;4.23;3.83;;;3.10;99.10;;;;;;5033916;28;20248;-76
2024/01/08 08:19:56;;;;;;;6.77;4.03;;;3.00;99.90;;;;;;5034091;28;20221;-77
2024/01/08 08:22:23;;;;;;;4.00;3.63;;;2.70;99.90;;;;;;5032810;28;20185;-77
2024/01/08 08:24:49;;;;;;;4.90;4.00;;;2.80;99.90;;;;;;5032494;28;20225;-78
2024/01/08 08:27:17;;;;;;;4.23;3.50;;;2.70;99.90;;;;;;5041109;28;20180;-75
2024/01/08 08:29:47;;;;;;;4.23;3.23;;;2.70;99.90;;;;;;5042889;28;20642;-78
2024/01/08 08:32:13;;;;;;;3.47;3.17;;;2.90;99.90;;;;;;5041117;28;20186;-79
2024/01/08 08:34:39;;;;;;;4.77;3.73;;;2.60;99.90;;;;;;5036876;28;20178;-78
2024/01/08 08:37:08;;;;;;;5.47;3.80;;;2.50;99.90;;;;;;5036286;28;20263;-78
2024/01/08 08:39:38;;;;;;;3.70;3.17;;;2.50;99.90;;;;;;5037846;28;20208;-77
2024/01/08 08:42:05;;;;;;;3.30;3.00;;;2.40;99.90;;;;;;5031949;28;20189;-77
2024/01/08 08:44:31;;;;;;;4.43;3.10;;;2.30;99.90;;;;;;5033042;28;20264;-76
2024/01/08 08:46:58;;;;;;;3.50;3.23;;;2.40;99.90;;;;;;5037377;28;20177;-76
2024/01/08 08:49:24;;;;;;;3.17;2.87;;;2.50;99.90;;;;;;5039525;28;20187;-77
2024/01/08 08:51:49;;;;;;;3.83;2.63;;;2.50;99.90;;;;;;5050603;28;20160;-78
2024/01/08 08:54:15;;;;;;;5.47;3.37;;;2.70;99.90;;;;;;5057885;28;20167;-79
2024/01/08 08:56:41;;;;;;;3.17;2.87;;;2.60;99.90;;;;;;5044672;28;20186;-79
2024/01/08 08:59:06;;;;;;;3.50;3.20;;;2.60;99.90;;;;;;5045826;28;20252;-75
2024/01/08 09:01:32;;;;;;;4.03;2.93;;;2.60;99.90;;;;;;5038994;28;20180;-78
2024/01/08 09:03:59;;;;;;;4.47;3.13;;;2.60;99.90;;;;;;5038122;28;20184;-80
2024/01/08 09:06:25;;;;;;;3.37;3.07;;;2.50;99.90;;;;;;5035378;28;20185;-79
2024/01/08 09:08:55;;;;;;;3.20;3.00;;;2.50;99.90;;;;;;5035277;28;20224;-78
2024/01/08 09:11:21;;;;;;;3.23;3.00;;;2.40;99.90;;;;;;5034595;28;20243;-80
2024/01/08 09:13:47;;;;;;;4.83;2.87;;;2.50;99.90;;;;;;5034374;28;20641;-79
2024/01/08 09:16:16;;;;;;;3.00;2.80;;;2.50;99.90;;;;;;5035783;28;20491;-81
2024/01/08 09:18:43;;;;;;;2.93;2.73;;;2.60;99.90;;;;;;5035857;28;20205;-79
2024/01/08 09:21:12;;;;;;;3.53;3.23;;;2.70;99.90;;;;;;5035772;28;20185;-78
2024/01/08 09:23:42;;;;;;;3.10;2.90;;;2.60;99.90;;;;;;5038927;28;20155;-77
2024/01/08 09:26:08;;;;;;;5.20;2.77;;;2.60;99.90;;;;;;5048326;28;20222;-79
2024/01/08 09:28:34;;;;;;;3.47;3.17;;;2.60;99.90;;;;;;5036873;28;20205;-78
2024/01/08 09:31:01;;;;;;;3.43;2.93;;;2.60;99.90;;;;;;5041632;28;20179;-77
2024/01/08 09:33:27;;;;;;;4.43;3.20;;;2.60;99.90;;;;;;5057047;28;20177;-79
2024/01/08 09:35:54;;;;;;;3.40;3.10;;;2.60;99.90;;;;;;5045101;28;20174;-77
2024/01/08 09:38:19;;;;;;;3.80;3.40;;;2.70;99.90;;;;;;5035543;28;20225;-79
2024/01/08 09:40:47;;;;;;;3.93;3.53;;;2.70;99.90;;;;;;5036046;28;20178;-77
2024/01/08 09:43:18;;;;;;;4.60;3.50;;;2.90;99.90;;;;;;5036630;28;20169;-78
2024/01/08 09:46:04;;;;;;;3.77;3.03;;;2.90;99.90;;;;;;5035752;28;20203;-80
2024/01/08 09:48:31;;;;;;;2.70;2.50;;;2.80;99.90;;;;;;5035941;28;20171;-79
2024/01/08 09:51:00;;;;;;;3.47;3.00;;;2.90;99.90;;;;;;5035439;28;20193;-80
2024/01/08 09:53:28;;;;;;;3.17;2.87;;;2.80;99.90;;;;;;5035468;28;20207;-80
2024/01/08 09:55:54;;;;;;;2.70;2.50;;;2.80;99.90;;;;;;5034731;28;20166;-81
2024/01/08 09:58:19;;;;;;;2.93;2.73;;;2.70;99.90;;;;;;5035299;28;20212;-80
2024/01/08 10:00:45;;;;;;;4.33;3.20;;;2.70;99.90;;;;;;5035177;28;20223;-79
2024/01/08 10:03:12;;;;;;;3.50;3.13;;;2.80;99.90;;;;;;5034728;28;20180;-77
2024/01/08 10:05:39;;;;;;;2.57;2.47;;;2.80;99.90;;;;;;5035816;28;20182;-79
2024/01/08 10:08:05;;;;;;;3.40;3.10;;;2.90;99.90;;;;;;5034299;28;20201;-78
2024/01/08 10:10:32;;;;;;;4.13;2.97;;;3.10;99.90;;;;;;5044292;28;20228;-76
2024/01/08 10:12:58;;;;;;;5.03;3.00;;;3.30;99.90;;;;;;5052111;28;20182;-79
2024/01/08 10:15:24;;;;;;;4.43;3.17;;;3.30;99.90;;;;;;5044276;28;20200;-79
2024/01/08 10:17:55;;;;;;;3.53;3.23;;;3.30;99.90;;;;;;5036542;28;20685;-77
2024/01/08 10:20:20;;;;;;;3.57;3.27;;;3.40;99.90;;;;;;5037755;28;20189;-76
2024/01/08 10:22:47;;;;;;;3.27;2.97;;;3.30;99.90;;;;;;5041200;28;20926;-76
2024/01/08 10:25:21;;;;;;;3.00;2.80;;;3.30;99.90;;;;;;5036608;28;20256;-79
2024/01/08 10:27:47;;;;;;;3.13;2.90;;;3.30;99.90;;;;;;5034106;28;20182;-80
2024/01/08 10:30:15;;;;;;;3.17;2.80;;;3.30;99.90;;;;;;5034528;28;20171;-77
2024/01/08 10:32:41;;;;;;;3.00;2.80;;;3.30;99.90;;;;;;5034845;28;20231;-78
2024/01/08 10:35:08;;;;;;;2.80;2.60;;;3.20;99.90;;;;;;5035034;28;20176;-78
2024/01/08 10:37:35;;;;;;;3.20;2.87;;;3.20;99.90;;;;;;5034871;28;20229;-80
2024/01/08 10:40:04;;;;;;;3.10;2.90;;;3.20;99.90;;;;;;5034559;28;20174;-79
2024/01/08 10:42:30;;;;;;;3.57;2.70;;;3.10;99.90;;;;;;5035031;28;20184;-75
2024/01/08 10:44:55;;;;;;;3.50;3.20;;;3.00;99.90;;;;;;5034156;28;20551;-75
2024/01/08 10:47:26;;;;;;;3.10;2.80;;;2.90;99.90;;;;;;5034801;28;20177;-76
2024/01/08 10:49:56;;;;;;;3.03;2.83;;;3.00;99.90;;;;;;5039363;28;20197;-78
2024/01/08 10:52:33;;;;;;;2.73;2.53;;;3.00;99.90;;;;;;5054071;28;20167;-78
2024/01/08 10:55:00;;;;;;;3.37;2.90;;;3.10;99.90;;;;;;5038355;28;20249;-78
2024/01/08 10:57:58;;;;;;;3.67;3.37;;;3.20;99.90;;;;;;5034842;28;20687;-77
2024/01/08 11:00:24;;;;;;;2.93;2.73;;;3.10;99.90;;;;;;5035012;28;20710;-80
2024/01/08 11:02:51;;;;;;;2.80;2.60;;;3.10;99.90;;;;;;5041254;28;20178;-77
2024/01/08 11:05:20;;;;;;;3.40;3.10;;;3.10;99.90;;;;;;5044322;28;20173;-78
2024/01/08 11:07:49;;;;;;;3.87;3.17;;;3.10;99.90;;;;;;5034179;28;20560;-78
2024/01/08 11:10:16;;;;;;;2.93;2.77;;;3.10;99.90;;;;;;5034043;28;20220;-77
2024/01/08 11:12:54;;;;;;;3.60;3.30;;;3.10;99.90;;;;;;5034134;28;20207;-79
2024/01/08 11:15:23;;;;;;;3.37;3.17;;;3.10;99.90;;;;;;5033449;28;20213;-78
2024/01/08 11:18:02;;;;;;;3.57;3.27;;;2.70;99.90;;;;;;5034611;28;20204;-79
2024/01/08 11:20:34;;;;;;;2.93;2.73;;;2.80;99.90;;;;;;5047790;28;20215;-78
2024/01/08 11:23:04;;;;;;;3.50;3.20;;;2.60;99.90;;;;;;5043147;28;20556;-78
2024/01/08 11:25:30;;;;;;;3.90;3.60;;;2.50;99.90;;;;;;5034169;28;20170;-78
2024/01/08 11:27:59;;;;;;;3.83;3.53;;;2.70;99.90;;;;;;5034085;28;20231;-79
2024/01/08 11:30:25;;;;;;;3.80;3.50;;;2.60;99.90;;;;;;5034010;28;20709;-79
2024/01/08 11:33:12;;;;;;;4.30;3.50;;;2.90;99.90;;;;;;5034095;28;20261;-76
2024/01/08 11:35:43;;;;;;;3.47;3.00;;;3.00;99.90;;;;;;5033957;28;20244;-76
2024/01/08 11:38:28;;;;;;;4.67;4.27;;;3.10;99.90;;;;;;5033800;28;20214;-78
2024/01/08 11:40:57;;;;;;;8.10;4.77;;;2.70;99.90;;;;;;5034317;28;20178;-78
2024/01/08 11:43:23;;;;;;;4.70;4.10;;;2.60;99.90;;;;;;5043620;28;20541;-78
2024/01/08 11:45:49;;;;;;;4.13;3.73;;;2.70;99.90;;;;;;5042083;28;20169;-79
2024/01/08 11:48:15;;;;;;;4.53;4.00;;;2.60;99.90;;;;;;5033862;28;20584;-76
2024/01/08 11:50:43;;;;;;;3.87;3.53;;;2.90;99.90;;;;;;5032995;28;20184;-81
2024/01/08 11:53:10;;;;;;;4.23;3.80;;;3.00;99.90;;;;;;5035996;28;20206;-80
2024/01/08 11:55:35;;;;;;;4.30;3.90;;;2.90;99.90;;;;;;5049505;28;20190;-79
2024/01/08 11:58:03;;;;;;;3.87;3.47;;;3.00;99.90;;;;;;5047781;28;20201;-80
2024/01/08 12:00:29;;;;;;;4.53;3.97;;;3.00;99.90;;;;;;5034274;28;20228;-79
2024/01/08 12:03:05;;;;;;;4.50;3.90;;;3.10;99.90;;;;;;5034428;28;20212;-76
2024/01/08 12:05:31;;;;;;;3.90;3.60;;;3.00;99.90;;;;;;5037292;28;20174;-78
2024/01/08 12:07:59;;;;;;;3.70;3.33;;;3.10;99.90;;;;;;5036597;28;20187;-78
2024/01/08 12:10:24;;;;;;;4.30;3.90;;;3.10;99.90;;;;;;5041802;28;20720;-77
2024/01/08 12:12:50;;;;;;;3.90;3.50;;;3.10;99.90;;;;;;5036031;28;20301;-79
2024/01/08 12:15:17;;;;;;;3.90;3.20;;;3.20;99.90;;;;;;5033613;28;20212;-79
2024/01/08 12:17:43;;;;;;;3.70;3.47;;;3.10;99.90;;;;;;5033324;28;20208;-78
2024/01/08 12:20:11;;;;;;;3.80;3.50;;;2.90;99.90;;;;;;5032859;28;20186;-78
2024/01/08 12:22:37;;;;;;;4.20;3.83;;;2.90;99.90;;;;;;5033438;28;20176;-78
2024/01/08 12:25:06;;;;;;;4.10;3.70;;;2.80;99.90;;;;;;5033866;28;20182;-79
2024/01/08 12:27:33;;;;;;;4.07;3.53;;;2.80;99.90;;;;;;5036166;28;20167;-77
2024/01/08 12:30:01;;;;;;;4.13;3.70;;;2.80;99.90;;;;;;5037448;28;20174;-78
2024/01/08 12:32:28;;;;;;;3.87;3.57;;;2.90;99.90;;;;;;5037885;28;20172;-76
2024/01/08 12:34:55;;;;;;;4.00;3.60;;;2.80;99.90;;;;;;5037477;28;20187;-79
2024/01/08 12:37:22;;;;;;;5.37;3.83;;;2.90;99.90;;;;;;5038090;28;20207;-77
2024/01/08 12:39:48;;;;;;;3.67;3.37;;;2.90;99.90;;;;;;5041655;28;20178;-77
2024/01/08 12:42:18;;;;;;;4.27;3.87;;;2.90;99.90;;;;;;5042026;28;20229;-77
2024/01/08 12:44:45;;;;;;;3.57;3.37;;;2.90;99.90;;;;;;5037330;28;20245;-78
2024/01/08 12:47:11;;;;;;;4.10;3.80;;;2.90;99.90;;;;;;5039652;28;20178;-77
2024/01/08 12:49:37;;;;;;;4.00;3.70;;;3.00;99.90;;;;;;5053089;28;20179;-79
2024/01/08 12:52:04;;;;;;;4.33;3.70;;;2.80;99.90;;;;;;5041265;28;20194;-79
2024/01/08 12:54:31;;;;;;;4.20;3.60;;;2.90;99.90;;;;;;5036989;28;20176;-77
2024/01/08 12:56:58;;;;;;;4.30;3.93;;;2.80;99.90;;;;;;5036784;28;20173;-78